MUCM/CMW METAR and TAF weather

Enter ICAO airport designator
Station Type Date Time Source
MUCM METAR 2019/12/08 23:50 UTC NOAA

MUCM 082350Z 02006KT 9000 NSC 22/20 Q1018


Station Type Date Time Source
MUCM Decoded METAR 2019/12/08 23:50 UTC NOAA

Camaguey Aeropuerto, Cuba (MUCM) 21-25N 077-51W 118M
Dec 08, 2019 - 06:50 PM EST / 2019.12.08 2350 UTC
Wind: from the NNE (020 degrees) at 7 MPH (6 KT):0
Visibility: 5 mile(s):0
Temperature: 71 F (22 C)
Dew Point: 68 F (20 C)
Relative Humidity: 88%
Pressure (altimeter): 30.06 in. Hg (1018 hPa)
ob: MUCM 082350Z 02006KT 9000 NSC 22/20 Q1018
cycle: 0

Station Type Date Time Source
MUCM TAF 2019/12/08 18:06 UTC NOAA

TAF MUCM 081700Z 0818/0918 05010KT 9000 SCT020
BECMG 0901/0903 VRB03KT
BECMG 0915/0917 09008KT

Example: see airport list